Time;durP1;ratioP1;P1;durP2;ratioP2;P2;SDS_P1;SDS_P2;PMS_P1;PMS_P2;Temp;Humidity;BMP_temperature;BMP_pressure;BME280_temperature;BME280_humidity;BME280_pressure;Samples;Min_cycle;Max_cycle;Signal;HPM_P1;HPM_P2
2023/01/13 00:00:58;;;;;;;34.15;4.80;;;;;;;7.71;100.00;99921.56;5033489;28;20388;-76
2023/01/13 00:03:23;;;;;;;35.67;6.00;;;;;;;7.63;100.00;99923.19;5035251;28;20033;-75
2023/01/13 00:05:48;;;;;;;23.48;5.22;;;;;;;7.64;100.00;99920.59;5036002;28;20120;-76
2023/01/13 00:08:14;;;;;;;30.27;4.32;;;;;;;7.62;100.00;99924.91;5036622;28;20052;-75
2023/01/13 00:10:39;;;;;;;34.03;4.22;;;;;;;7.58;100.00;99928.34;5034073;28;20083;-75
2023/01/13 00:13:05;;;;;;;27.95;4.78;;;;;;;7.57;100.00;99935.34;5033149;28;20362;-76
2023/01/13 00:15:31;;;;;;;38.60;5.72;;;;;;;7.61;100.00;99938.88;5034788;28;20029;-76
2023/01/13 00:17:56;;;;;;;21.52;3.55;;;;;;;7.57;100.00;99924.00;5037101;28;20037;-76
2023/01/13 00:20:22;;;;;;;27.65;4.43;;;;;;;7.53;100.00;99922.19;5041053;28;20047;-75
2023/01/13 00:22:47;;;;;;;31.20;4.20;;;;;;;7.56;100.00;99927.47;5033587;28;20424;-74
2023/01/13 00:25:12;;;;;;;32.22;3.80;;;;;;;7.65;100.00;99930.22;5032906;28;20033;-75
2023/01/13 00:27:38;;;;;;;34.03;5.50;;;;;;;7.66;100.00;99918.84;5033684;28;20036;-75
2023/01/13 00:30:06;;;;;;;28.00;4.03;;;;;;;7.65;100.00;99922.34;5032873;28;20025;-75
2023/01/13 00:32:32;;;;;;;30.08;4.82;;;;;;;7.69;100.00;99913.69;5036250;28;20049;-75
2023/01/13 00:34:57;;;;;;;37.17;4.25;;;;;;;7.72;100.00;99907.59;5030383;28;20083;-75
2023/01/13 00:37:23;;;;;;;34.00;4.45;;;;;;;7.75;100.00;99913.75;5035443;28;20104;-75
2023/01/13 00:39:52;;;;;;;33.38;4.45;;;;;;;7.73;100.00;99904.09;5031202;28;20025;-75
2023/01/13 00:45:02;;;;;;;34.17;4.03;;;;;;;7.66;100.00;99907.50;5032370;28;20040;-74
2023/01/13 00:47:28;;;;;;;39.50;4.88;;;;;;;7.68;100.00;99897.97;5031580;28;20485;-74
2023/01/13 00:49:53;;;;;;;38.33;4.90;;;;;;;7.63;100.00;99887.41;5030489;28;20063;-75
2023/01/13 00:52:18;;;;;;;25.92;4.65;;;;;;;7.62;100.00;99883.00;5031948;28;20539;-74
2023/01/13 00:54:44;;;;;;;29.35;5.45;;;;;;;7.59;100.00;99869.91;5032466;28;20029;-74
2023/01/13 00:57:10;;;;;;;31.80;4.15;;;;;;;7.55;100.00;99865.47;5031492;28;20030;-75
2023/01/13 00:59:36;;;;;;;37.33;6.85;;;;;;;7.54;100.00;99869.84;5033407;28;20481;-75
2023/01/13 01:02:01;;;;;;;38.22;5.53;;;;;;;7.53;100.00;99875.06;5030820;28;20057;-75
2023/01/13 01:04:26;;;;;;;32.33;6.70;;;;;;;7.52;100.00;99883.78;5031705;28;20021;-75
2023/01/13 01:06:52;;;;;;;30.13;4.95;;;;;;;7.48;100.00;99882.84;5033451;28;20487;-74
2023/01/13 01:09:17;;;;;;;32.03;4.38;;;;;;;7.46;100.00;99883.69;5032479;28;20033;-75
2023/01/13 01:11:43;;;;;;;57.33;6.53;;;;;;;7.46;100.00;99878.44;5064938;28;20033;-76
2023/01/13 01:14:11;;;;;;;28.80;4.55;;;;;;;7.43;100.00;99874.94;5034385;28;20021;-75
2023/01/13 01:16:38;;;;;;;25.55;4.70;;;;;;;7.38;100.00;99873.09;5032685;28;20470;-74
2023/01/13 01:19:04;;;;;;;51.97;6.47;;;;;;;7.40;100.00;99869.66;5056837;28;20472;-76
2023/01/13 01:21:30;;;;;;;33.70;5.18;;;;;;;7.41;100.00;99871.41;5033525;28;20029;-75
2023/01/13 01:23:59;;;;;;;41.92;7.18;;;;;;;7.42;100.00;99883.66;5049261;28;20094;-76
2023/01/13 01:26:26;;;;;;;30.67;4.78;;;;;;;7.46;100.00;99895.03;5033728;28;20545;-76
2023/01/13 01:28:52;;;;;;;34.03;4.55;;;;;;;7.48;100.00;99887.22;5032645;28;20072;-75
2023/01/13 01:31:20;;;;;;;41.13;4.88;;;;;;;7.46;100.00;99886.28;5025990;28;20461;-76
2023/01/13 01:33:46;;;;;;;34.72;5.53;;;;;;;7.49;100.00;99888.94;5028217;28;20029;-75
2023/01/13 01:36:13;;;;;;;37.40;4.80;;;;;;;7.46;100.00;99884.56;5037452;28;20112;-75
2023/01/13 01:38:38;;;;;;;41.90;5.30;;;;;;;7.40;100.00;99881.88;5038826;28;20135;-75
2023/01/13 01:41:04;;;;;;;44.08;6.25;;;;;;;7.35;100.00;99870.44;5031846;28;20444;-75
2023/01/13 01:43:58;;;;;;;43.22;5.00;;;;;;;7.33;100.00;99867.81;5044997;28;20538;-75
2023/01/13 01:46:41;;;;;;;26.48;4.25;;;;;;;7.35;100.00;99871.34;5037574;28;20025;-75
2023/01/13 01:49:16;;;;;;;29.17;4.10;;;;;;;7.40;100.00;99882.72;5017839;28;20400;-75
2023/01/13 01:51:50;;;;;;;28.45;3.95;;;;;;;7.37;100.00;99880.06;5059270;28;20036;-76
2023/01/13 01:54:40;;;;;;;32.50;4.30;;;;;;;7.38;100.00;99881.84;5027011;28;20025;-75
2023/01/13 01:57:10;;;;;;;43.22;5.95;;;;;;;7.40;100.00;99890.56;5040137;28;20040;-76
2023/01/13 01:59:37;;;;;;;52.42;6.07;;;;;;;7.43;100.00;99887.13;5034265;28;20547;-75
2023/01/13 02:02:03;;;;;;;36.30;5.07;;;;;;;7.47;100.00;99882.81;5030850;28;20116;-76
2023/01/13 02:04:33;;;;;;;30.65;6.72;;;;;;;7.51;100.00;99876.78;5031949;28;20116;-75
2023/01/13 02:07:00;;;;;;;39.78;5.82;;;;;;;7.48;100.00;99863.66;5029818;28;20408;-75
2023/01/13 02:09:26;;;;;;;41.90;5.78;;;;;;;7.46;100.00;99853.16;5019804;28;20105;-76
2023/01/13 02:14:35;;;;;;;;;;;;;;;7.54;100.00;99855.88;5033727;28;20099;-75
2023/01/13 02:17:16;;;;;;;33.90;5.68;;;;;;;7.53;100.00;99844.53;5029644;28;19913;-74
2023/01/13 02:20:19;;;;;;;50.28;5.65;;;;;;;7.56;100.00;99841.06;5030647;28;20040;-75
2023/01/13 02:24:52;;;;;;;44.20;6.25;;;;;;;7.51;100.00;99841.00;5034306;28;20040;-75
2023/01/13 02:26:35;;;;;;;43.80;4.47;;;;;;;7.46;100.00;99842.69;5041429;28;20040;-75
2023/01/13 02:32:45;;;;;;;40.67;5.63;;;;;;;7.45;100.00;99835.69;5024538;28;20090;-76
2023/01/13 02:35:26;;;;;;;40.13;6.30;;;;;;;7.48;100.00;99838.34;5019011;28;20484;-75
2023/01/13 02:37:53;;;;;;;43.05;5.95;;;;;;;7.47;100.00;99843.56;5031769;28;20029;-76
2023/01/13 02:40:43;;;;;;;39.00;4.85;;;;;;;7.51;100.00;99850.59;5032557;28;20034;-75
2023/01/13 02:46:59;;;;;;;40.88;5.43;;;;;;;7.49;100.00;99840.13;5035407;28;20036;-75
2023/01/13 02:49:33;;;;;;;38.75;4.82;;;;;;;7.53;100.00;99838.41;5035636;28;20121;-75
2023/01/13 02:52:07;;;;;;;36.78;4.85;;;;;;;7.50;100.00;99846.22;5033016;28;20052;-76
2023/01/13 02:54:36;;;;;;;34.58;5.57;;;;;;;7.45;100.00;99842.66;5039280;28;20105;-76
2023/01/13 02:57:02;;;;;;;39.40;5.57;;;;;;;7.44;100.00;99849.63;5030372;28;20037;-76
2023/01/13 02:59:30;;;;;;;35.40;4.13;;;;;;;7.48;100.00;99846.19;5028564;28;20057;-76
2023/01/13 03:01:56;;;;;;;25.60;4.28;;;;;;;7.42;100.00;99849.63;5033721;28;20045;-76
2023/01/13 03:04:45;;;;;;;36.97;4.57;;;;;;;7.41;100.00;99855.72;5024938;28;20025;-76
2023/01/13 03:07:52;;;;;;;34.90;4.53;;;;;;;7.41;100.00;99860.06;5029122;28;20409;-75
2023/01/13 03:10:54;;;;;;;21.48;4.18;;;;;;;7.41;100.00;99862.69;5027183;28;20064;-76
2023/01/13 03:13:35;;;;;;;25.17;4.35;;;;;;;7.40;100.00;99859.16;5027516;28;20034;-76
2023/01/13 03:16:26;;;;;;;34.85;3.83;;;;;;;7.45;100.00;99861.88;5027876;28;20043;-76
2023/01/13 03:18:56;;;;;;;27.60;4.25;;;;;;;7.39;100.00;99854.81;5035363;28;20045;-76
2023/01/13 03:21:33;;;;;;;30.60;3.58;;;;;;;7.35;100.00;99871.34;5037080;28;20028;-75
2023/01/13 03:24:14;;;;;;;23.90;4.60;;;;;;;7.36;100.00;99856.50;5041457;28;20104;-76
2023/01/13 03:26:54;;;;;;;35.55;4.32;;;;;;;7.37;100.00;99832.09;5037801;28;20052;-76
2023/01/13 03:29:40;;;;;;;26.65;4.97;;;;;;;7.30;100.00;99831.13;5031379;28;20033;-75
2023/01/13 03:32:24;;;;;;;27.35;3.45;;;;;;;7.22;100.00;99833.63;5035290;28;20473;-74
2023/01/13 03:34:54;;;;;;;32.08;4.90;;;;;;;7.17;100.00;99840.53;5037314;28;20040;-75
2023/01/13 03:37:25;;;;;;;31.48;4.03;;;;;;;7.18;100.00;99838.81;5036829;28;20028;-74
2023/01/13 03:39:56;;;;;;;25.92;3.58;;;;;;;7.19;100.00;99843.19;5035377;28;20074;-76
2023/01/13 03:42:24;;;;;;;20.60;3.33;;;;;;;7.16;100.00;99822.22;5037663;28;20473;-75
2023/01/13 03:44:59;;;;;;;20.83;2.95;;;;;;;7.13;100.00;99824.78;5037636;28;20026;-75
2023/01/13 03:47:52;;;;;;;25.75;3.55;;;;;;;7.13;100.00;99830.88;5038139;28;20026;-74
2023/01/13 03:50:20;;;;;;;21.07;3.57;;;;;;;7.08;100.00;99820.38;5048620;28;20517;-75
2023/01/13 03:52:52;;;;;;;16.85;2.60;;;;;;;7.08;100.00;99837.78;5031392;28;20026;-75
2023/01/13 03:55:23;;;;;;;20.33;3.20;;;;;;;7.07;100.00;99818.63;5030267;28;20485;-76
2023/01/13 03:57:58;;;;;;;18.63;2.63;;;;;;;7.04;100.00;99823.81;5035666;28;20030;-75
2023/01/13 04:00:30;;;;;;;20.15;3.05;;;;;;;7.03;100.00;99829.03;5053103;28;20057;-76
2023/01/13 04:03:14;;;;;;;16.90;2.58;;;;;;;7.02;100.00;99835.97;5036287;28;20029;-76
2023/01/13 04:05:46;;;;;;;14.23;2.47;;;;;;;7.02;100.00;99828.13;5035621;28;20025;-75
2023/01/13 04:08:19;;;;;;;19.55;2.83;;;;;;;7.01;100.00;99826.38;5042849;28;20025;-75
2023/01/13 04:11:06;;;;;;;19.42;2.80;;;;;;;6.96;100.00;99835.91;5038565;28;20037;-75
2023/01/13 04:13:36;;;;;;;16.45;2.65;;;;;;;6.98;100.00;99831.56;5049302;28;20025;-75
2023/01/13 04:16:05;;;;;;;20.98;3.00;;;;;;;6.98;100.00;99823.69;5040117;28;20111;-75
2023/01/13 04:18:30;;;;;;;24.05;2.22;;;;;;;6.97;100.00;99826.31;5037540;28;20035;-74
2023/01/13 04:20:59;;;;;;;14.75;2.60;;;;;;;6.98;100.00;99830.69;5042495;28;20396;-76
2023/01/13 04:23:24;;;;;;;19.13;2.35;;;;;;;6.99;100.00;99838.53;5035808;28;20124;-76
2023/01/13 04:25:50;;;;;;;17.45;2.85;;;;;;;7.01;100.00;99839.47;5045088;28;20108;-75
2023/01/13 04:28:17;;;;;;;19.77;2.22;;;;;;;6.99;100.00;99830.69;5039915;28;20036;-75
2023/01/13 04:30:43;;;;;;;18.30;2.97;;;;;;;6.99;100.00;99859.47;5031781;28;20456;-75
2023/01/13 04:33:09;;;;;;;18.95;3.13;;;;;;;7.00;100.00;99831.56;5030412;28;20029;-76
2023/01/13 04:35:35;;;;;;;21.25;3.15;;;;;;;6.99;100.00;99828.09;5040883;28;20036;-75
2023/01/13 04:38:09;;;;;;;18.45;2.38;;;;;;;7.02;100.00;99835.97;5033261;28;20025;-75
2023/01/13 04:40:34;;;;;;;25.10;2.35;;;;;;;7.05;100.00;99840.38;5036304;28;20455;-75
2023/01/13 04:42:59;;;;;;;23.88;2.72;;;;;;;7.06;100.00;99837.78;5034848;28;20101;-76
2023/01/13 04:45:25;;;;;;;22.13;2.50;;;;;;;7.08;100.00;99840.41;5030846;28;20033;-75
2023/01/13 04:47:50;;;;;;;23.05;2.80;;;;;;;7.11;100.00;99844.81;5030898;28;20018;-76
2023/01/13 04:50:18;;;;;;;17.92;2.67;;;;;;;7.09;100.00;99843.06;5062018;28;20036;-76
2023/01/13 04:52:48;;;;;;;19.00;2.53;;;;;;;7.13;100.00;99853.56;5032720;28;20113;-76
2023/01/13 04:55:15;;;;;;;15.57;2.58;;;;;;;7.22;100.00;99872.88;5031390;28;20432;-75
2023/01/13 04:57:40;;;;;;;21.77;3.20;;;;;;;7.38;100.00;99860.91;5034551;28;20056;-75
2023/01/13 05:00:07;;;;;;;15.52;2.22;;;;;;;7.39;100.00;99860.06;5044340;28;20405;-75
2023/01/13 05:02:32;;;;;;;17.20;2.35;;;;;;;7.40;100.00;99859.16;5031881;28;20108;-75
2023/01/13 05:04:58;;;;;;;21.73;2.55;;;;;;;7.41;100.00;99854.84;5032355;28;20025;-75
2023/01/13 05:07:24;;;;;;;25.65;3.63;;;;;;;7.40;100.00;99880.09;5029139;28;20029;-74
2023/01/13 05:09:49;;;;;;;22.08;2.45;;;;;;;7.42;100.00;99836.53;5033190;28;20025;-74
2023/01/13 05:17:42;;;;;;;;;;;;;;;7.43;100.00;99854.00;5037167;28;20101;-76
2023/01/13 05:20:09;;;;;;;13.48;2.30;;;;;;;7.42;100.00;99846.13;5035390;28;20003;-76
2023/01/13 05:25:21;;;;;;;19.77;3.47;;;;;;;7.41;100.00;99840.00;5033830;28;20056;-75
2023/01/13 05:27:52;;;;;;;32.78;3.67;;;;;;;7.37;100.00;99848.66;5034050;28;20380;-75
2023/01/13 05:30:19;;;;;;;16.80;3.78;;;;;;;7.36;100.00;99857.38;5036394;28;20079;-75
2023/01/13 05:32:44;;;;;;;29.17;3.38;;;;;;;7.33;100.00;99841.63;5036466;28;20033;-75
2023/01/13 05:35:09;;;;;;;20.67;4.03;;;;;;;7.29;100.00;99845.06;5045573;28;20028;-75
2023/01/13 05:37:35;;;;;;;20.85;2.67;;;;;;;7.33;100.00;99840.78;5048357;28;20049;-76
2023/01/13 05:45:30;;;;;;;17.63;2.70;;;;;;;7.18;100.00;99857.13;5030453;28;20806;-74
2023/01/13 05:47:56;;;;;;;17.95;2.33;;;;;;;7.16;100.00;99854.50;5028198;28;20021;-76
2023/01/13 05:50:21;;;;;;;22.50;2.38;;;;;;;7.19;100.00;99849.31;5029703;28;20444;-75
2023/01/13 05:52:47;;;;;;;17.50;3.53;;;;;;;7.20;100.00;99847.56;5024911;28;20021;-75
2023/01/13 05:55:13;;;;;;;15.93;2.00;;;;;;;7.21;100.00;99846.72;5027796;28;20033;-75
2023/01/13 05:57:39;;;;;;;20.05;2.72;;;;;;;7.28;100.00;99855.53;5031692;28;20022;-75
2023/01/13 06:00:04;;;;;;;18.58;2.67;;;;;;;7.27;100.00;99865.13;5028121;28;20102;-76
2023/01/13 06:02:30;;;;;;;12.80;2.40;;;;;;;7.29;100.00;99860.78;5027535;28;20108;-74
2023/01/13 06:04:55;;;;;;;18.15;2.90;;;;;;;7.29;100.00;99863.38;5031824;28;20029;-74
2023/01/13 06:07:20;;;;;;;18.30;2.60;;;;;;;7.28;100.00;99864.25;5029969;28;20021;-75
2023/01/13 06:09:46;;;;;;;26.05;3.20;;;;;;;7.31;100.00;99855.56;5036261;28;20420;-76
2023/01/13 06:12:12;;;;;;;20.05;2.40;;;;;;;7.36;100.00;99857.38;5025714;28;20072;-74
2023/01/13 06:14:40;;;;;;;15.68;2.40;;;;;;;7.40;100.00;99866.16;5023861;28;20082;-76
2023/01/13 06:17:10;;;;;;;26.08;3.00;;;;;;;7.44;100.00;99870.56;5031122;28;20025;-75
2023/01/13 06:19:36;;;;;;;23.58;2.75;;;;;;;7.47;100.00;99874.97;5027875;28;20496;-75
2023/01/13 06:22:31;;;;;;;17.15;2.80;;;;;;;7.43;100.00;99895.88;5029726;28;20009;-74
2023/01/13 06:24:57;;;;;;;15.75;2.88;;;;;;;7.46;100.00;99883.69;5058784;28;20382;-75
2023/01/13 06:27:23;;;;;;;26.88;3.08;;;;;;;7.47;100.00;99882.81;5027612;28;20021;-74
2023/01/13 06:29:49;;;;;;;27.98;2.58;;;;;;;7.52;100.00;99889.00;5028018;28;20029;-75
2023/01/13 06:32:31;;;;;;;11.98;2.42;;;;;;;7.53;100.00;99881.16;5024930;28;20500;-74
2023/01/13 06:35:05;;;;;;;16.50;2.47;;;;;;;7.55;100.00;99878.56;5024773;28;20026;-74
2023/01/13 06:37:32;;;;;;;20.55;3.22;;;;;;;7.57;100.00;99882.09;5024075;28;20025;-74
2023/01/13 06:40:00;;;;;;;14.20;2.22;;;;;;;7.55;100.00;99886.44;5023753;28;20060;-74
2023/01/13 06:45:16;;;;;;;26.05;2.90;;;;;;;7.58;100.00;99886.44;5027675;28;20049;-74
2023/01/13 06:47:42;;;;;;;12.90;2.33;;;;;;;7.58;100.00;99884.75;5036453;28;20033;-73
2023/01/13 06:50:08;;;;;;;23.67;3.45;;;;;;;7.54;100.00;99882.03;5035807;28;20496;-74
2023/01/13 06:52:33;;;;;;;16.08;2.88;;;;;;;7.52;100.00;99896.88;5040982;28;20077;-76
2023/01/13 06:54:59;;;;;;;11.60;2.42;;;;;;;7.53;100.00;99890.78;5035095;28;20021;-74
2023/01/13 06:57:24;;;;;;;13.20;3.75;;;;;;;7.55;100.00;99904.75;5030295;28;20359;-74
2023/01/13 06:59:50;;;;;;;21.45;2.50;;;;;;;7.52;100.00;99896.88;5029703;28;20017;-75
2023/01/13 07:02:15;;;;;;;14.85;2.97;;;;;;;7.51;100.00;99892.47;5033380;28;20032;-74
2023/01/13 07:04:40;;;;;;;16.73;2.55;;;;;;;7.53;100.00;99914.34;5035319;28;20119;-74
2023/01/13 07:07:09;;;;;;;12.15;2.20;;;;;;;7.57;100.00;99895.19;5030888;28;20033;-74
2023/01/13 07:09:34;;;;;;;16.50;2.47;;;;;;;7.61;100.00;99883.91;5029899;28;20025;-74
2023/01/13 07:11:59;;;;;;;27.23;3.17;;;;;;;7.63;100.00;99897.88;5031431;28;20029;-74
2023/01/13 07:17:09;;;;;;;18.63;2.72;;;;;;;7.62;100.00;99905.72;5039595;28;20381;-74
2023/01/13 07:19:34;;;;;;;19.73;3.03;;;;;;;7.60;100.00;99895.22;5042853;28;20036;-74
2023/01/13 07:22:00;;;;;;;27.48;3.35;;;;;;;7.59;100.00;99898.69;5042175;28;20100;-74
2023/01/13 07:24:25;;;;;;;22.45;3.50;;;;;;;7.62;100.00;99910.94;5039076;28;20424;-74
2023/01/13 07:26:51;;;;;;;24.08;2.90;;;;;;;7.62;100.00;99917.06;5038069;28;20032;-73
2023/01/13 07:29:16;;;;;;;26.85;3.22;;;;;;;7.65;100.00;99900.50;5032561;28;20385;-75
2023/01/13 07:31:42;;;;;;;27.13;3.60;;;;;;;7.64;100.00;99904.88;5029885;28;20124;-76
2023/01/13 07:34:07;;;;;;;22.40;2.88;;;;;;;7.65;100.00;99905.75;5031243;28;20458;-76
2023/01/13 07:36:33;;;;;;;18.80;2.70;;;;;;;7.62;100.00;99911.81;5030436;28;20029;-75
2023/01/13 07:38:58;;;;;;;24.17;4.25;;;;;;;7.62;100.00;99911.81;5028717;28;20025;-74
2023/01/13 07:44:09;;;;;;;22.05;2.83;;;;;;;7.68;100.00;99917.16;5029712;28;20055;-75
2023/01/13 07:46:35;;;;;;;27.23;3.38;;;;;;;7.69;100.00;99921.53;5028934;28;20458;-74
2023/01/13 07:49:01;;;;;;;19.70;2.75;;;;;;;7.70;100.00;99925.88;5043705;28;20095;-75
2023/01/13 07:51:26;;;;;;;24.95;3.78;;;;;;;7.73;100.00;99925.97;5077086;28;20537;-75
2023/01/13 07:53:52;;;;;;;15.38;3.78;;;;;;;7.74;100.00;99929.44;5048139;28;20055;-74
2023/01/13 07:56:18;;;;;;;19.52;3.08;;;;;;;7.75;100.00;99928.59;5031088;28;20108;-74
2023/01/13 07:58:49;;;;;;;20.02;3.80;;;;;;;7.72;100.00;99963.47;5040178;28;20025;-74
2023/01/13 08:01:15;;;;;;;15.70;3.03;;;;;;;7.72;100.00;99955.63;5045063;28;20045;-74
2023/01/13 08:03:41;;;;;;;26.45;3.92;;;;;;;7.72;100.00;99950.38;5036102;28;20474;-74
2023/01/13 08:06:08;;;;;;;18.05;2.53;;;;;;;7.62;100.00;99937.13;5036149;28;20040;-73
2023/01/13 08:08:34;;;;;;;30.33;3.80;;;;;;;7.53;100.00;99949.25;5037943;28;20029;-73
2023/01/13 08:11:00;;;;;;;16.08;3.85;;;;;;;7.35;100.00;99941.09;5047075;28;20094;-73
2023/01/13 08:13:25;;;;;;;20.80;2.97;;;;;;;7.19;100.00;99948.72;5050323;28;20457;-73
2023/01/13 08:15:53;;;;;;;22.88;3.42;;;;;;;7.03;100.00;99958.06;5038190;28;20030;-74
2023/01/13 08:18:21;;;;;;;13.25;1.95;;;;;;;6.95;100.00;99957.06;5042239;28;20037;-73
2023/01/13 08:20:53;;;;;;;24.25;3.08;;;;;;;6.92;100.00;99964.84;5045116;28;20021;-73
2023/01/13 08:23:20;;;;;;;13.27;2.50;;;;;;;6.96;100.00;99977.13;5063930;28;20033;-73
2023/01/13 08:25:46;;;;;;;23.00;2.42;;;;;;;6.90;100.00;99974.41;5046014;28;20452;-73
2023/01/13 08:28:12;;;;;;;25.25;4.05;;;;;;;6.85;100.00;99978.66;5036905;28;20104;-74
2023/01/13 08:30:38;;;;;;;32.70;4.13;;;;;;;6.82;100.00;99991.69;5042987;28;20032;-74
2023/01/13 08:33:10;;;;;;;22.48;2.83;;;;;;;6.78;100.00;99982.03;5038492;28;20384;-74
2023/01/13 08:35:40;;;;;;;21.13;3.78;;;;;;;6.75;100.00;99978.53;5041247;28;20055;-74
2023/01/13 08:38:06;;;;;;;15.23;2.63;;;;;;;6.79;100.00;99986.41;5027408;28;20027;-74
2023/01/13 08:40:32;;;;;;;28.75;3.90;;;;;;;6.71;100.00;99992.34;5040588;28;20032;-75
2023/01/13 08:42:58;;;;;;;23.52;3.72;;;;;;;6.67;100.00;99982.69;5048360;28;20534;-74
2023/01/13 08:45:24;;;;;;;25.05;3.45;;;;;;;6.62;100.00;99992.22;5035759;28;20034;-73
2023/01/13 08:47:50;;;;;;;25.92;4.70;;;;;;;6.57;100.00;99988.63;5042430;28;20037;-73
2023/01/13 08:50:16;;;;;;;22.20;2.83;;;;;;;6.49;100.00;99995.44;5049545;28;20024;-73
2023/01/13 08:52:41;;;;;;;26.30;3.30;;;;;;;6.51;100.00;100006.78;5036711;28;20029;-73
2023/01/13 08:55:08;;;;;;;25.08;3.40;;;;;;;6.52;100.00;100011.19;5041989;28;20055;-74
2023/01/13 08:57:33;;;;;;;32.22;3.03;;;;;;;6.56;100.00;100010.38;5049882;28;20075;-73
2023/01/13 08:59:59;;;;;;;17.88;2.80;;;;;;;6.74;100.00;100015.06;5043086;28;20021;-73
2023/01/13 09:02:26;;;;;;;27.17;2.97;;;;;;;6.79;100.00;100005.59;5046067;28;20052;-75
2023/01/13 09:04:52;;;;;;;31.77;3.78;;;;;;;6.94;100.00;100015.44;5030898;28;20555;-74
2023/01/13 09:07:18;;;;;;;23.67;4.20;;;;;;;7.02;100.00;100029.53;5044366;28;20033;-74
2023/01/13 09:09:43;;;;;;;22.10;3.13;;;;;;;7.13;100.00;100044.53;5031912;28;20512;-74
2023/01/13 09:14:55;;;;;;;23.75;3.75;;;;;;;7.27;100.00;100035.22;5029389;28;20037;-74
2023/01/13 09:17:22;;;;;;;25.15;3.88;;;;;;;7.34;100.00;100021.38;5038758;28;20037;-74
2023/01/13 09:19:48;;;;;;;16.85;2.97;;;;;;;7.36;100.00;100040.56;5034381;28;20033;-73
2023/01/13 09:22:15;;;;;;;26.30;2.83;;;;;;;7.48;100.00;100024.19;5036483;28;20048;-75
2023/01/13 09:24:41;;;;;;;17.15;3.17;;;;;;;7.50;100.00;100029.44;5035724;28;20038;-74
2023/01/13 09:27:09;;;;;;;17.83;3.47;;;;;;;7.54;100.00;100028.63;5034577;28;20040;-73
2023/01/13 09:29:34;;;;;;;26.88;3.95;;;;;;;7.54;100.00;100033.88;5021357;28;20032;-75
2023/01/13 09:32:00;;;;;;;16.17;3.53;;;;;;;7.58;100.00;100046.16;5033949;28;20440;-74
2023/01/13 09:37:09;;;;;;;;;;;;;;;7.72;100.00;100060.34;5027937;28;20039;-75
2023/01/13 09:39:35;;;;;;;26.67;2.63;;;;;;;7.74;100.00;100091.81;5032506;28;19915;-74
2023/01/13 09:45:07;;;;;;;13.45;2.47;;;;;;;7.83;100.00;100075.38;5041893;28;20035;-73
2023/01/13 09:47:47;;;;;;;16.88;2.58;;;;;;;7.90;100.00;100079.84;5034288;28;20030;-74
2023/01/13 09:50:12;;;;;;;25.98;3.05;;;;;;;7.91;100.00;100072.00;5024808;28;20389;-74
2023/01/13 09:52:39;;;;;;;32.33;5.15;;;;;;;7.94;100.00;100071.16;5045313;28;20037;-74
2023/01/13 09:55:17;;;;;;;19.17;2.75;;;;;;;7.95;100.00;100093.88;5041218;28;20476;-75
2023/01/13 09:57:42;;;;;;;27.63;4.68;;;;;;;7.94;100.00;100085.13;5039404;28;20036;-74
2023/01/13 10:00:16;;;;;;;17.40;2.38;;;;;;;7.88;100.00;100092.00;5040452;28;20037;-75
2023/01/13 10:03:06;;;;;;;24.05;3.58;;;;;;;7.93;100.00;100095.59;5042320;28;20048;-75
2023/01/13 10:05:59;;;;;;;24.88;3.00;;;;;;;7.90;100.00;100091.19;5031750;28;20033;-75
2023/01/13 10:08:28;;;;;;;15.45;2.35;;;;;;;7.92;100.00;100106.91;5033130;28;20488;-72
2023/01/13 10:13:12;;;;;;;15.35;1.95;;;;;;;7.90;100.00;100116.50;5036274;28;20070;-74
2023/01/13 10:13:47;;;;;;;26.13;3.33;;;;;;;7.93;100.00;100106.06;5037228;28;20096;-73
2023/01/13 10:16:28;;;;;;;21.35;4.00;;;;;;;7.90;100.00;100111.25;5036317;28;20131;-74
2023/01/13 10:18:59;;;;;;;18.85;2.17;;;;;;;7.94;100.00;100110.47;5038543;28;20592;-74
2023/01/13 10:21:55;;;;;;;25.52;2.72;;;;;;;7.91;100.00;100116.53;5041795;28;20029;-75
2023/01/13 10:24:32;;;;;;;18.33;2.83;;;;;;;7.94;100.00;100107.84;5031645;28;20481;-74
2023/01/13 10:27:03;;;;;;;19.75;3.03;;;;;;;7.95;100.00;100114.84;5032375;28;20052;-74
2023/01/13 10:29:31;;;;;;;20.17;2.70;;;;;;;7.94;100.00;100127.03;5038805;28;20491;-73
2023/01/13 10:31:58;;;;;;;10.75;1.48;;;;;;;7.96;100.00;100137.53;5033806;28;20121;-74
2023/01/13 10:34:25;;;;;;;26.15;3.67;;;;;;;7.97;100.00;100143.69;5040579;28;20035;-74
2023/01/13 10:37:05;;;;;;;18.58;2.63;;;;;;;7.94;100.00;100137.53;5032361;28;20068;-74
2023/01/13 10:39:43;;;;;;;26.55;2.70;;;;;;;7.94;100.00;100150.63;5038451;28;20528;-73
2023/01/13 10:42:18;;;;;;;18.50;2.90;;;;;;;7.93;100.00;100146.25;5029941;28;20029;-73
2023/01/13 10:45:16;;;;;;;19.60;2.45;;;;;;;7.90;100.00;100142.69;5031212;28;20045;-74
2023/01/13 10:47:41;;;;;;;26.20;3.55;;;;;;;7.93;100.00;100138.41;5031372;28;20397;-73
2023/01/13 10:50:09;;;;;;;11.18;1.58;;;;;;;7.96;100.00;100158.50;5031520;28;20031;-73
2023/01/13 10:52:41;;;;;;;20.38;2.60;;;;;;;8.01;100.00;100156.84;5037270;28;20028;-73
2023/01/13 10:55:29;;;;;;;17.75;1.90;;;;;;;8.03;100.00;100155.13;5047378;28;20021;-73
2023/01/13 10:57:54;;;;;;;13.63;2.65;;;;;;;8.06;100.00;100170.03;5033841;28;20034;-74
2023/01/13 11:00:32;;;;;;;12.18;1.85;;;;;;;8.05;100.00;100171.75;5038286;28;20052;-73
2023/01/13 11:03:16;;;;;;;22.10;2.28;;;;;;;8.05;100.00;100174.38;5039279;28;20055;-73
2023/01/13 11:06:08;;;;;;;22.10;2.28;;;;;;;8.08;100.00;100177.06;5032190;28;20017;-73
2023/01/13 11:08:45;;;;;;;16.98;2.42;;;;;;;8.08;100.00;100179.69;5025955;28;20052;-74
2023/01/13 11:11:40;;;;;;;14.85;2.22;;;;;;;8.06;100.00;100181.38;5032672;28;20040;-73
2023/01/13 11:17:28;;;;;;;14.25;2.10;;;;;;;8.10;100.00;100182.31;5038672;28;20055;-74
2023/01/13 11:20:13;;;;;;;12.98;2.33;;;;;;;8.12;100.00;100205.94;5035264;28;20436;-74
2023/01/13 11:22:45;;;;;;;20.23;2.47;;;;;;;8.09;100.00;100206.75;5047041;28;20457;-74
2023/01/13 11:25:31;;;;;;;12.35;2.55;;;;;;;8.07;100.00;100214.59;5030856;28;20373;-74
2023/01/13 11:28:03;;;;;;;15.30;2.08;;;;;;;8.09;100.00;100207.63;5046444;28;20039;-73
2023/01/13 11:30:41;;;;;;;15.95;2.30;;;;;;;8.14;100.00;100198.97;5036904;28;20612;-73
2023/01/13 11:33:09;;;;;;;18.42;3.25;;;;;;;8.20;100.00;100214.78;5029735;28;20500;-74
2023/01/13 11:35:42;;;;;;;22.80;2.85;;;;;;;8.21;100.00;100224.44;5036072;28;20033;-74
2023/01/13 11:38:40;;;;;;;20.92;3.42;;;;;;;8.25;100.00;100215.75;5035523;28;20483;-74
2023/01/13 11:41:20;;;;;;;20.92;2.88;;;;;;;8.27;100.00;100237.63;5033457;28;20037;-73
2023/01/13 11:43:52;;;;;;;17.23;2.38;;;;;;;8.32;100.00;100219.34;5040114;28;20033;-73
2023/01/13 11:46:19;;;;;;;19.30;2.55;;;;;;;8.36;100.00;100231.66;5037320;28;20033;-73
2023/01/13 11:48:45;;;;;;;14.18;3.00;;;;;;;8.37;100.00;100217.66;5037134;28;20044;-72
2023/01/13 11:51:13;;;;;;;13.23;2.75;;;;;;;8.40;100.00;100229.09;5034800;28;20017;-74
2023/01/13 11:54:00;;;;;;;14.80;2.20;;;;;;;8.44;100.00;100235.28;5034484;28;20041;-73
2023/01/13 11:56:55;;;;;;;11.77;1.77;;;;;;;8.48;100.00;100247.59;5043197;28;20037;-72
2023/01/13 11:59:36;;;;;;;11.90;2.03;;;;;;;8.65;100.00;100237.34;5053672;28;20473;-73
2023/01/13 12:02:21;;;;;;;14.50;2.22;;;;;;;8.60;100.00;100236.44;5034925;28;20056;-74
2023/01/13 12:05:13;;;;;;;11.32;1.63;;;;;;;8.56;100.00;100242.44;5042184;28;20100;-72
2023/01/13 12:07:51;;;;;;;15.45;2.53;;;;;;;8.51;100.00;100252.00;5041141;28;20025;-73
2023/01/13 12:10:54;;;;;;;25.27;2.40;;;;;;;8.49;100.00;100245.84;5035990;28;20021;-74
2023/01/13 12:13:36;;;;;;;12.32;2.33;;;;;;;8.51;100.00;100252.00;5042437;28;20060;-74
2023/01/13 12:16:12;;;;;;;15.23;2.28;;;;;;;8.52;100.00;100256.38;5033400;28;20493;-72
2023/01/13 12:18:41;;;;;;;16.20;2.50;;;;;;;8.53;100.00;100250.28;5039016;28;20488;-72
2023/01/13 12:21:17;;;;;;;10.27;2.20;;;;;;;8.52;100.00;100277.34;5042211;28;20029;-72
2023/01/13 12:23:51;;;;;;;12.27;2.38;;;;;;;8.51;100.00;100275.63;5038732;28;20018;-73
2023/01/13 12:26:19;;;;;;;13.80;2.08;;;;;;;8.47;100.00;100263.31;5039567;28;20025;-72
2023/01/13 12:28:53;;;;;;;14.13;2.08;;;;;;;8.49;100.00;100274.69;5040515;28;20040;-72